createdAt,value
2019-02-12T00:00:37.035Z,1.60
2019-02-12T00:02:14.196Z,1.60
2019-02-12T00:03:49.677Z,1.60
2019-02-12T00:05:25.267Z,1.50
2019-02-12T00:07:00.784Z,1.50
2019-02-12T00:08:36.283Z,1.50
2019-02-12T00:10:11.756Z,1.50
2019-02-12T00:11:47.272Z,1.50
2019-02-12T00:13:22.806Z,1.50
2019-02-12T00:14:58.298Z,1.50
2019-02-12T00:16:33.795Z,1.40
2019-02-12T00:18:09.289Z,1.40
2019-02-12T00:19:44.978Z,1.40
2019-02-12T00:21:20.490Z,1.40
2019-02-12T00:22:56.068Z,1.40
2019-02-12T00:24:31.553Z,1.50
2019-02-12T00:26:07.039Z,1.50
2019-02-12T00:27:43.619Z,1.50
2019-02-12T00:29:19.285Z,1.40
2019-02-12T00:30:54.774Z,1.50
2019-02-12T00:32:30.262Z,1.40
2019-02-12T00:34:05.902Z,1.50
2019-02-12T00:35:41.361Z,1.50
2019-02-12T00:37:16.856Z,1.40
2019-02-12T00:38:52.338Z,1.40
2019-02-12T00:40:27.843Z,1.50
2019-02-12T00:42:03.327Z,1.50
2019-02-12T00:43:38.871Z,1.40
2019-02-12T00:45:14.397Z,1.40
2019-02-12T00:46:49.950Z,1.50
2019-02-12T00:48:25.438Z,1.50
2019-02-12T00:50:00.930Z,1.50
2019-02-12T00:51:36.431Z,1.50
2019-02-12T00:53:11.914Z,1.50
2019-02-12T00:54:47.395Z,1.50
2019-02-12T00:56:22.890Z,1.40
2019-02-12T00:57:58.458Z,1.40
2019-02-12T00:59:33.960Z,1.40
2019-02-12T01:01:09.443Z,1.50
2019-02-12T01:02:44.951Z,1.40
2019-02-12T01:04:20.430Z,1.40
2019-02-12T01:05:55.923Z,1.40
2019-02-12T01:07:31.417Z,1.40
2019-02-12T01:09:09.856Z,1.40
2019-02-12T01:10:45.328Z,1.40
2019-02-12T01:12:20.811Z,1.40
2019-02-12T01:13:56.394Z,1.40
2019-02-12T01:15:31.965Z,1.40
2019-02-12T01:17:07.466Z,1.40
2019-02-12T01:18:43.120Z,1.40
2019-02-12T01:20:20.171Z,1.40
2019-02-12T01:21:55.635Z,1.40
2019-02-12T01:23:31.124Z,1.40
2019-02-12T01:25:08.512Z,1.40
2019-02-12T01:26:44.628Z,1.40
2019-02-12T01:28:20.113Z,1.40
2019-02-12T01:29:55.597Z,1.40
2019-02-12T01:31:31.224Z,1.40
2019-02-12T01:33:06.777Z,1.40
2019-02-12T01:34:42.486Z,1.40
2019-02-12T01:36:18.008Z,1.40
2019-02-12T01:37:53.494Z,1.40
2019-02-12T01:39:28.976Z,1.50
2019-02-12T01:41:04.467Z,1.40
2019-02-12T01:42:40.114Z,1.40
2019-02-12T01:44:15.669Z,1.40
2019-02-12T01:45:51.173Z,1.40
2019-02-12T01:47:26.648Z,1.40
2019-02-12T01:49:02.166Z,1.40
2019-02-12T01:50:37.655Z,1.40
2019-02-12T01:52:13.141Z,1.40
2019-02-12T01:53:48.642Z,1.40
2019-02-12T01:55:24.208Z,1.40
2019-02-12T01:56:59.687Z,1.40
2019-02-12T01:58:35.173Z,1.40
2019-02-12T02:00:13.710Z,1.40
2019-02-12T02:01:49.292Z,1.40
2019-02-12T02:03:24.848Z,1.40
2019-02-12T02:05:00.412Z,1.40
2019-02-12T02:06:35.929Z,1.50
2019-02-12T02:08:11.430Z,1.40
2019-02-12T02:09:46.996Z,1.40
2019-02-12T02:11:22.485Z,1.40
2019-02-12T02:12:57.978Z,1.50
2019-02-12T02:14:33.509Z,1.40
2019-02-12T02:16:08.966Z,1.40
2019-02-12T02:17:45.958Z,1.40
2019-02-12T02:19:21.443Z,1.50
2019-02-12T02:20:56.933Z,1.50
2019-02-12T02:22:32.413Z,1.40
2019-02-12T02:24:07.905Z,1.40
2019-02-12T02:25:43.397Z,1.40
2019-02-12T02:27:18.953Z,1.30
2019-02-12T02:28:54.471Z,1.40
2019-02-12T02:30:30.027Z,1.40
2019-02-12T02:32:05.509Z,1.30
2019-02-12T02:33:40.994Z,1.40
2019-02-12T02:35:16.504Z,1.30
2019-02-12T02:36:51.985Z,1.40
2019-02-12T02:38:27.468Z,1.40
2019-02-12T02:40:02.945Z,1.40
2019-02-12T02:41:38.443Z,1.30
2019-02-12T02:43:13.922Z,1.30
2019-02-12T02:44:49.412Z,1.30
2019-02-12T02:46:26.404Z,1.40
2019-02-12T02:48:01.979Z,1.40
2019-02-12T02:49:37.454Z,1.40
2019-02-12T02:51:13.003Z,1.40
2019-02-12T02:52:48.499Z,1.40
2019-02-12T02:54:23.985Z,1.40
2019-02-12T02:55:59.466Z,1.40
2019-02-12T02:57:34.966Z,1.40
2019-02-12T02:59:10.483Z,1.40
2019-02-12T03:00:45.962Z,1.40
2019-02-12T03:02:21.446Z,1.40
2019-02-12T03:03:56.933Z,1.40
2019-02-12T03:05:32.440Z,1.40
2019-02-12T03:07:07.925Z,1.40
2019-02-12T03:08:43.485Z,1.30
2019-02-12T03:10:18.951Z,1.30
2019-02-12T03:11:54.444Z,1.30
2019-02-12T03:13:29.921Z,1.30
2019-02-12T03:15:07.902Z,1.30
2019-02-12T03:16:43.419Z,1.30
2019-02-12T03:18:18.901Z,1.30
2019-02-12T03:19:54.372Z,1.40
2019-02-12T03:21:29.919Z,1.30
2019-02-12T03:23:05.401Z,1.30
2019-02-12T03:24:40.893Z,1.30
2019-02-12T03:26:16.377Z,1.30
2019-02-12T03:27:51.866Z,1.30
2019-02-12T03:29:27.348Z,1.30
2019-02-12T03:31:02.823Z,1.30
2019-02-12T03:32:38.307Z,1.20
2019-02-12T03:34:13.795Z,1.20
2019-02-12T03:35:49.270Z,1.30
2019-02-12T03:37:24.758Z,1.30
2019-02-12T03:39:00.261Z,1.20
2019-02-12T03:40:35.736Z,1.20
2019-02-12T03:42:11.219Z,1.20
2019-02-12T03:43:46.706Z,1.20
2019-02-12T03:45:23.700Z,1.20
2019-02-12T03:46:59.242Z,1.20
2019-02-12T03:48:34.728Z,1.10
2019-02-12T03:50:12.211Z,1.10
2019-02-12T03:51:47.725Z,1.00
2019-02-12T03:53:23.197Z,1.00
2019-02-12T03:54:58.684Z,1.00
2019-02-12T03:56:34.166Z,0.90
2019-02-12T03:58:09.680Z,0.80
2019-02-12T03:59:45.170Z,0.90
2019-02-12T04:01:20.720Z,0.80
2019-02-12T04:03:01.312Z,0.80
2019-02-12T04:04:36.851Z,0.70
2019-02-12T04:06:12.339Z,0.70
2019-02-12T04:07:47.813Z,0.70
2019-02-12T04:09:23.294Z,0.70
2019-02-12T04:10:58.773Z,0.70
2019-02-12T04:12:34.244Z,0.70
2019-02-12T04:14:09.804Z,0.70
2019-02-12T04:15:45.381Z,0.70
2019-02-12T04:17:20.907Z,0.70
2019-02-12T04:18:56.395Z,0.70
2019-02-12T04:20:31.903Z,0.70
2019-02-12T04:22:07.401Z,0.70
2019-02-12T04:23:42.885Z,0.70
2019-02-12T04:25:18.375Z,0.70
2019-02-12T04:26:53.868Z,0.70
2019-02-12T04:28:29.365Z,0.70
2019-02-12T04:30:06.148Z,0.80
2019-02-12T04:31:41.647Z,0.70
2019-02-12T04:33:17.134Z,0.70
2019-02-12T04:34:52.624Z,0.70
2019-02-12T04:36:28.103Z,0.70
2019-02-12T04:38:03.582Z,0.70
2019-02-12T04:39:39.093Z,0.60
2019-02-12T04:41:14.571Z,0.60
2019-02-12T04:42:50.058Z,0.60
2019-02-12T04:44:25.532Z,0.60
2019-02-12T04:46:01.021Z,0.60
2019-02-12T04:47:36.524Z,0.60
2019-02-12T04:49:12.003Z,0.60
2019-02-12T04:50:47.482Z,0.60
2019-02-12T04:52:31.620Z,0.60
2019-02-12T04:54:00.171Z,0.60
2019-02-12T04:55:35.659Z,0.50
2019-02-12T04:57:11.204Z,0.60
2019-02-12T04:58:46.716Z,0.60
2019-02-12T05:00:22.236Z,0.60
2019-02-12T05:01:57.722Z,0.50
2019-02-12T05:03:33.201Z,0.50
2019-02-12T05:05:10.888Z,0.50
2019-02-12T05:06:46.443Z,0.60
2019-02-12T05:08:21.922Z,0.50
2019-02-12T05:09:57.400Z,0.50
2019-02-12T05:11:32.882Z,0.40
2019-02-12T05:13:08.442Z,0.40
2019-02-12T05:14:43.996Z,0.50
2019-02-12T05:16:19.476Z,0.40
2019-02-12T05:17:54.963Z,0.40
2019-02-12T05:19:30.477Z,0.40
2019-02-12T05:21:05.968Z,0.50
2019-02-12T05:22:43.657Z,0.30
2019-02-12T05:24:18.628Z,0.30
2019-02-12T05:25:54.133Z,0.30
2019-02-12T05:27:29.621Z,0.30
2019-02-12T05:29:05.107Z,0.20
2019-02-12T05:30:40.584Z,0.20
2019-02-12T05:32:16.076Z,0.20
2019-02-12T05:33:51.554Z,0.20
2019-02-12T05:35:27.041Z,0.20
2019-02-12T05:37:02.530Z,0.20
2019-02-12T05:38:38.041Z,0.20
2019-02-12T05:40:13.537Z,0.10
2019-02-12T05:41:49.024Z,0.10
2019-02-12T05:43:24.504Z,0.10
2019-02-12T05:45:00.024Z,0.10
2019-02-12T05:46:35.501Z,0.10
2019-02-12T05:48:11.063Z,0.10
2019-02-12T05:49:46.551Z,0.10
2019-02-12T05:51:22.028Z,0.10
2019-02-12T05:52:57.512Z,0.10
2019-02-12T05:54:32.999Z,0.10
2019-02-12T05:56:08.499Z,0.10
2019-02-12T05:57:45.503Z,0.10
2019-02-12T05:59:20.985Z,0.10
2019-02-12T06:00:56.477Z,0.00
2019-02-12T06:02:31.962Z,0.10
2019-02-12T06:04:07.455Z,0.00
2019-02-12T06:05:42.935Z,0.00
2019-02-12T06:07:18.425Z,0.00
2019-02-12T06:08:53.914Z,0.00
2019-02-12T06:10:29.409Z,0.10
2019-02-12T06:12:04.965Z,0.00
2019-02-12T06:13:40.454Z,0.10
2019-02-12T06:15:15.932Z,0.00
2019-02-12T06:16:51.415Z,0.10
2019-02-12T06:18:26.912Z,0.10
2019-02-12T06:20:02.431Z,0.10
2019-02-12T06:21:37.919Z,0.10
2019-02-12T06:23:13.427Z,0.10
2019-02-12T06:24:48.901Z,0.10
2019-02-12T06:26:24.431Z,0.20
2019-02-12T06:27:59.902Z,0.20
2019-02-12T06:29:35.395Z,0.20
2019-02-12T06:31:11.015Z,0.20
2019-02-12T06:32:46.595Z,0.20
2019-02-12T06:34:22.082Z,0.20
2019-02-12T06:35:57.576Z,0.20
2019-02-12T06:37:33.048Z,0.30
2019-02-12T06:39:08.609Z,0.30
2019-02-12T06:40:44.116Z,0.30
2019-02-12T06:42:19.588Z,0.30
2019-02-12T06:43:55.079Z,0.30
2019-02-12T06:45:30.565Z,0.30
2019-02-12T06:47:06.055Z,0.30
2019-02-12T06:48:41.545Z,0.30
2019-02-12T06:50:17.080Z,0.30
2019-02-12T06:51:52.699Z,0.40
2019-02-12T06:53:28.186Z,0.40
2019-02-12T06:55:03.677Z,0.40
2019-02-12T06:56:39.155Z,0.40
2019-02-12T06:58:14.674Z,0.50
2019-02-12T06:59:50.150Z,0.50
2019-02-12T07:01:25.643Z,0.50
2019-02-12T07:03:17.183Z,0.50
2019-02-12T07:04:53.437Z,0.50
2019-02-12T07:06:45.701Z,0.50
2019-02-12T07:09:04.990Z,0.50
2019-02-12T07:10:40.475Z,0.50
2019-02-12T07:12:40.339Z,0.50
2019-02-12T07:14:35.718Z,0.50
2019-02-12T07:16:21.710Z,0.60
2019-02-12T07:18:22.385Z,0.60
2019-02-12T07:20:35.686Z,0.60
2019-02-12T07:22:31.186Z,0.70
2019-02-12T07:24:49.264Z,0.70
2019-02-12T07:26:38.705Z,0.80
2019-02-12T07:28:55.525Z,0.80
2019-02-12T07:31:13.696Z,0.80
2019-02-12T07:33:13.308Z,0.80
2019-02-12T07:35:15.745Z,0.80
2019-02-12T07:37:02.191Z,0.70
2019-02-12T07:39:03.373Z,0.70
2019-02-12T07:41:06.406Z,0.70
2019-02-12T07:42:55.332Z,0.70
2019-02-12T07:44:35.711Z,0.70
2019-02-12T07:46:47.003Z,0.70
2019-02-12T07:48:42.446Z,0.60
2019-02-12T07:50:37.930Z,0.60
2019-02-12T07:52:20.883Z,0.60
2019-02-12T07:54:22.384Z,0.60
2019-02-12T07:56:17.403Z,0.60
2019-02-12T07:58:41.658Z,0.60
2019-02-12T08:00:45.840Z,0.60
2019-02-12T08:02:41.051Z,0.60
2019-02-12T08:04:41.422Z,0.60
2019-02-12T08:06:30.634Z,0.60
2019-02-12T08:08:31.923Z,0.60
2019-02-12T08:10:33.543Z,0.60
2019-02-12T08:12:45.459Z,0.60
2019-02-12T08:14:28.406Z,0.60
2019-02-12T08:16:29.056Z,0.60
2019-02-12T08:18:09.429Z,0.60
2019-02-12T08:20:25.925Z,0.60
2019-02-12T08:22:25.715Z,0.60
2019-02-12T08:24:33.392Z,0.50
2019-02-12T08:26:28.938Z,0.50
2019-02-12T08:28:21.072Z,0.50
2019-02-12T08:30:27.205Z,0.50
2019-02-12T08:32:29.806Z,0.50
2019-02-12T08:34:47.706Z,0.50
2019-02-12T08:36:43.017Z,0.50
2019-02-12T08:38:41.381Z,0.50
2019-02-12T08:40:27.357Z,0.40
2019-02-12T08:42:22.969Z,0.50
2019-02-12T08:44:39.642Z,0.50
2019-02-12T08:46:25.898Z,0.50
2019-02-12T08:48:36.833Z,0.50
2019-02-12T08:50:18.385Z,0.40
2019-02-12T08:52:22.526Z,0.40
2019-02-12T08:54:36.249Z,0.40
2019-02-12T08:56:41.641Z,0.40
2019-02-12T08:58:34.079Z,0.40
2019-02-12T09:00:55.153Z,0.40
2019-02-12T09:02:47.378Z,0.40
2019-02-12T09:04:48.763Z,0.40
2019-02-12T09:07:06.703Z,0.40
2019-02-12T09:09:27.942Z,0.40
2019-02-12T09:11:40.208Z,0.40
2019-02-12T09:13:26.088Z,0.40
2019-02-12T09:15:47.476Z,0.50
2019-02-12T09:17:56.322Z,0.50
2019-02-12T09:19:56.204Z,0.50
2019-02-12T09:21:54.604Z,0.60
2019-02-12T09:23:46.692Z,0.60
2019-02-12T09:25:35.752Z,0.60
2019-02-12T09:27:42.671Z,0.70
2019-02-12T09:29:23.065Z,0.80
2019-02-12T09:31:29.177Z,0.80
2019-02-12T09:33:42.284Z,0.80
2019-02-12T09:35:39.124Z,0.90
2019-02-12T09:38:02.292Z,0.90
2019-02-12T09:40:19.192Z,0.90
2019-02-12T09:42:18.945Z,0.90
2019-02-12T09:44:17.584Z,1.00
2019-02-12T09:46:29.393Z,1.00
2019-02-12T09:48:20.213Z,1.00
2019-02-12T09:50:15.900Z,1.00
2019-02-12T09:52:24.458Z,1.00
2019-02-12T09:54:26.008Z,1.00
2019-02-12T09:56:22.764Z,1.10
2019-02-12T09:58:28.244Z,1.00
2019-02-12T10:00:27.987Z,1.00
2019-02-12T10:02:25.695Z,1.10
2019-02-12T10:04:31.886Z,1.10
2019-02-12T10:06:27.334Z,1.10
2019-02-12T10:08:28.418Z,1.10
2019-02-12T10:10:24.089Z,1.00
2019-02-12T10:12:38.577Z,1.00
2019-02-12T10:14:42.871Z,1.10
2019-02-12T10:16:26.144Z,1.10
2019-02-12T10:18:09.372Z,1.10
2019-02-12T10:20:09.106Z,1.10
2019-02-12T10:22:18.544Z,1.10
2019-02-12T10:24:26.889Z,1.10
2019-02-12T10:26:10.390Z,1.10
2019-02-12T10:28:24.197Z,1.10
2019-02-12T10:30:36.611Z,1.20
2019-02-12T10:32:10.737Z,1.20
2019-02-12T10:33:46.900Z,1.10
2019-02-12T10:35:22.386Z,1.10
2019-02-12T10:36:57.899Z,1.10
2019-02-12T10:38:33.435Z,1.10
2019-02-12T10:40:08.918Z,1.20
2019-02-12T10:41:44.401Z,1.20
2019-02-12T10:43:19.926Z,1.20
2019-02-12T10:44:55.554Z,1.20
2019-02-12T10:46:31.035Z,1.20
2019-02-12T10:48:06.511Z,1.20
2019-02-12T10:49:42.033Z,1.10
2019-02-12T10:51:17.533Z,1.20
2019-02-12T10:52:53.011Z,1.10
2019-02-12T10:54:28.590Z,1.10
2019-02-12T10:56:04.707Z,1.20
2019-02-12T10:57:40.271Z,1.20
2019-02-12T10:59:15.829Z,1.20
2019-02-12T11:00:52.827Z,1.20
2019-02-12T11:02:28.327Z,1.20
2019-02-12T11:04:03.805Z,1.20
2019-02-12T11:05:39.354Z,1.30
2019-02-12T11:07:14.836Z,1.30
2019-02-12T11:08:50.364Z,1.30
2019-02-12T11:10:25.839Z,1.30
2019-02-12T11:12:02.833Z,1.30
2019-02-12T11:13:38.307Z,1.40
2019-02-12T11:15:13.794Z,1.40
2019-02-12T11:16:49.326Z,1.40
2019-02-12T11:18:24.845Z,1.50
2019-02-12T11:20:00.335Z,1.40
2019-02-12T11:21:35.900Z,1.50
2019-02-12T11:23:11.785Z,1.50
2019-02-12T11:24:47.257Z,1.50
2019-02-12T11:26:22.742Z,1.50
2019-02-12T11:27:58.221Z,1.60
2019-02-12T11:29:33.816Z,1.70
2019-02-12T11:31:10.829Z,1.70
2019-02-12T11:32:46.315Z,1.70
2019-02-12T11:34:21.811Z,1.80
2019-02-12T11:35:58.201Z,1.70
2019-02-12T11:37:33.668Z,1.70
2019-02-12T11:39:09.227Z,1.80
2019-02-12T11:40:46.227Z,1.90
2019-02-12T11:42:21.738Z,1.80
2019-02-12T11:43:59.009Z,1.80
2019-02-12T11:45:34.488Z,1.80
2019-02-12T11:47:09.995Z,1.80
2019-02-12T11:48:45.559Z,1.80
2019-02-12T11:50:21.034Z,1.90
2019-02-12T11:51:56.512Z,1.90
2019-02-12T11:53:32.339Z,2.00
2019-02-12T11:55:14.870Z,2.00
2019-02-12T11:56:50.359Z,2.00
2019-02-12T11:58:25.839Z,1.90
2019-02-12T12:00:01.483Z,1.90
2019-02-12T12:01:38.492Z,1.80
2019-02-12T12:03:13.972Z,1.80
2019-02-12T12:04:49.463Z,1.80
2019-02-12T12:06:24.952Z,1.80
2019-02-12T12:08:00.489Z,1.80
2019-02-12T12:09:35.965Z,1.80
2019-02-12T12:11:11.584Z,1.80
2019-02-12T12:12:47.073Z,1.80
2019-02-12T12:14:24.089Z,1.80
2019-02-12T12:15:59.564Z,1.80
2019-02-12T12:17:35.058Z,1.80
2019-02-12T12:19:10.582Z,1.80
2019-02-12T12:20:46.061Z,1.80
2019-02-12T12:22:21.686Z,1.70
2019-02-12T12:23:57.164Z,1.70
2019-02-12T12:25:32.650Z,1.70
2019-02-12T12:27:09.636Z,1.70
2019-02-12T12:28:47.459Z,1.60
2019-02-12T12:30:22.938Z,1.60
2019-02-12T12:31:58.424Z,1.50
2019-02-12T12:33:33.904Z,1.50
2019-02-12T12:35:11.310Z,1.50
2019-02-12T12:36:46.793Z,1.50
2019-02-12T12:38:22.285Z,1.40
2019-02-12T12:39:57.765Z,1.40
2019-02-12T12:41:35.031Z,1.40
2019-02-12T12:43:11.724Z,1.40
2019-02-12T12:44:47.190Z,1.20
2019-02-12T12:46:22.674Z,1.10
2019-02-12T12:47:58.154Z,1.00
2019-02-12T12:49:33.658Z,1.10
2019-02-12T12:51:09.198Z,1.10
2019-02-12T12:52:45.267Z,1.20
2019-02-12T12:54:20.745Z,1.20
2019-02-12T12:55:56.238Z,1.20
2019-02-12T12:57:31.719Z,1.20
2019-02-12T12:59:07.219Z,1.20
2019-02-12T13:00:42.700Z,1.20
2019-02-12T13:02:18.183Z,1.20
2019-02-12T13:03:53.669Z,1.30
2019-02-12T13:05:29.186Z,1.20
2019-02-12T13:07:06.169Z,1.20
2019-02-12T13:08:41.661Z,1.30
2019-02-12T13:10:18.348Z,1.30
2019-02-12T13:11:53.844Z,1.30
2019-02-12T13:13:29.316Z,1.30
2019-02-12T13:15:06.944Z,1.40
2019-02-12T13:16:42.455Z,1.30
2019-02-12T13:18:18.404Z,1.40
2019-02-12T13:19:53.893Z,1.40
2019-02-12T13:21:29.375Z,1.40
2019-02-12T13:23:04.888Z,1.50
2019-02-12T13:24:41.751Z,1.30
2019-02-12T13:26:18.811Z,1.40
2019-02-12T13:27:54.289Z,1.30
2019-02-12T13:29:29.940Z,1.30
2019-02-12T13:31:05.432Z,1.30
2019-02-12T13:32:41.596Z,1.30
2019-02-12T13:34:18.057Z,1.30
2019-02-12T13:35:53.563Z,1.30
2019-02-12T13:37:29.057Z,1.30
2019-02-12T13:39:05.587Z,1.30
2019-02-12T13:40:41.147Z,1.30
2019-02-12T13:42:16.637Z,1.30
2019-02-12T13:43:53.127Z,1.30
2019-02-12T13:45:28.650Z,1.40
2019-02-12T13:47:04.153Z,1.30
2019-02-12T13:48:39.706Z,1.30
2019-02-12T13:50:15.200Z,1.30
2019-02-12T13:51:51.566Z,1.30
2019-02-12T13:53:27.073Z,1.30
2019-02-12T13:55:02.697Z,1.30
2019-02-12T13:56:38.548Z,1.30
2019-02-12T13:58:14.036Z,1.30
2019-02-12T13:59:49.548Z,1.20
2019-02-12T14:01:25.026Z,1.20
2019-02-12T14:03:01.269Z,1.20
2019-02-12T14:04:37.508Z,1.20
2019-02-12T14:06:13.040Z,1.20
2019-02-12T14:07:48.541Z,1.20
2019-02-12T14:09:24.065Z,1.20
2019-02-12T14:10:59.622Z,1.20
2019-02-12T14:12:35.103Z,1.20
2019-02-12T14:14:10.611Z,1.20
2019-02-12T14:15:46.102Z,1.10
2019-02-12T14:17:21.588Z,1.10
2019-02-12T14:18:57.148Z,1.10
2019-02-12T14:20:32.654Z,1.10
2019-02-12T14:22:08.154Z,1.00
2019-02-12T14:23:43.633Z,1.10
2019-02-12T14:25:26.352Z,1.10
2019-02-12T14:27:01.857Z,1.00
2019-02-12T14:28:37.334Z,1.10
2019-02-12T14:30:22.296Z,1.10
2019-02-12T14:31:57.811Z,1.10
2019-02-12T14:33:33.285Z,1.00
2019-02-12T14:35:11.678Z,1.00
2019-02-12T14:36:47.200Z,1.00
2019-02-12T14:38:22.706Z,1.00
2019-02-12T14:39:58.168Z,1.00
2019-02-12T14:41:34.014Z,1.00
2019-02-12T14:43:14.168Z,1.00
2019-02-12T14:44:46.682Z,1.00
2019-02-12T14:46:22.172Z,1.00
2019-02-12T14:47:57.666Z,1.10
2019-02-12T14:49:33.158Z,1.10
2019-02-12T14:51:08.633Z,1.10
2019-02-12T14:52:45.520Z,1.10
2019-02-12T14:54:21.025Z,1.10
2019-02-12T14:55:56.507Z,1.10
2019-02-12T14:57:33.886Z,1.10
2019-02-12T14:59:09.365Z,1.10
2019-02-12T15:00:44.858Z,1.10
2019-02-12T15:02:20.332Z,1.10
2019-02-12T15:03:55.827Z,1.10
2019-02-12T15:05:31.487Z,1.10
2019-02-12T15:07:07.063Z,1.10
2019-02-12T15:08:44.194Z,1.10
2019-02-12T15:10:19.680Z,1.10
2019-02-12T15:11:55.156Z,1.10
2019-02-12T15:13:32.308Z,1.10
2019-02-12T15:15:22.244Z,1.10
2019-02-12T15:16:57.766Z,1.10
2019-02-12T15:18:33.301Z,1.10
2019-02-12T15:20:13.889Z,1.10
2019-02-12T15:21:49.397Z,1.00
2019-02-12T15:23:24.877Z,1.00
2019-02-12T15:25:00.381Z,1.00
2019-02-12T15:26:35.900Z,1.00
2019-02-12T15:28:11.387Z,1.00
2019-02-12T15:29:50.397Z,0.90
2019-02-12T15:31:25.889Z,1.00
2019-02-12T15:33:01.389Z,0.90
2019-02-12T15:34:36.950Z,1.00
2019-02-12T15:36:12.439Z,0.90
2019-02-12T15:37:47.940Z,0.90
2019-02-12T15:39:23.460Z,0.90
2019-02-12T15:40:59.017Z,0.90
2019-02-12T15:42:34.579Z,0.90
2019-02-12T15:44:10.073Z,0.90
2019-02-12T15:45:45.656Z,0.90
2019-02-12T15:47:21.175Z,0.90
2019-02-12T15:48:56.816Z,0.90
2019-02-12T15:50:32.312Z,0.90
2019-02-12T15:52:07.801Z,0.90
2019-02-12T15:53:43.298Z,0.90
2019-02-12T15:55:20.387Z,0.90
2019-02-12T15:56:55.942Z,0.90
2019-02-12T15:58:31.590Z,0.90
2019-02-12T16:00:12.473Z,0.90
2019-02-12T16:01:51.232Z,0.90
2019-02-12T16:03:26.894Z,0.90
2019-02-12T16:05:02.391Z,0.90
2019-02-12T16:06:37.896Z,0.90
2019-02-12T16:08:13.469Z,0.90
2019-02-12T16:09:49.136Z,0.90
2019-02-12T16:11:25.005Z,0.90
2019-02-12T16:13:00.486Z,0.90
2019-02-12T16:14:35.978Z,0.90
2019-02-12T16:16:11.550Z,0.90
2019-02-12T16:17:47.051Z,0.90
2019-02-12T16:19:22.561Z,0.90
2019-02-12T16:20:58.049Z,0.90
2019-02-12T16:22:33.556Z,0.90
2019-02-12T16:24:09.045Z,0.90
2019-02-12T16:25:44.549Z,0.90
2019-02-12T16:27:20.129Z,0.90
2019-02-12T16:28:55.743Z,0.90
2019-02-12T16:30:31.302Z,0.90
2019-02-12T16:32:06.828Z,0.90
2019-02-12T16:33:42.489Z,0.90
2019-02-12T16:35:18.819Z,0.90
2019-02-12T16:36:55.124Z,0.90
2019-02-12T16:38:30.953Z,0.90
2019-02-12T16:40:10.802Z,0.90
2019-02-12T16:41:46.331Z,0.90
2019-02-12T16:43:21.803Z,0.90
2019-02-12T16:44:57.390Z,0.90
2019-02-12T16:46:34.461Z,0.90
2019-02-12T16:48:11.084Z,0.80
2019-02-12T16:49:46.572Z,0.80
2019-02-12T16:51:22.400Z,0.80
2019-02-12T16:52:58.055Z,0.80
2019-02-12T16:54:33.701Z,0.80
2019-02-12T16:56:09.307Z,0.80
2019-02-12T16:57:44.789Z,0.80
2019-02-12T16:59:20.852Z,0.80
2019-02-12T17:00:56.339Z,0.80
2019-02-12T17:02:31.834Z,0.80
2019-02-12T17:04:07.347Z,0.80
2019-02-12T17:05:42.838Z,0.90
2019-02-12T17:07:18.419Z,0.90
2019-02-12T17:08:53.998Z,0.80
2019-02-12T17:10:29.561Z,0.80
2019-02-12T17:12:05.080Z,0.90
2019-02-12T17:13:40.564Z,0.90
2019-02-12T17:15:16.078Z,0.90
2019-02-12T17:16:51.567Z,0.90
2019-02-12T17:18:27.059Z,0.80
2019-02-12T17:20:02.567Z,0.90
2019-02-12T17:21:38.087Z,0.90
2019-02-12T17:23:13.593Z,0.90
2019-02-12T17:24:49.100Z,0.90
2019-02-12T17:26:24.623Z,0.90
2019-02-12T17:28:00.120Z,0.90
2019-02-12T17:29:35.751Z,0.80
2019-02-12T17:31:11.321Z,0.80
2019-02-12T17:32:46.818Z,0.80
2019-02-12T17:34:22.319Z,0.90
2019-02-12T17:35:57.821Z,0.80
2019-02-12T17:37:33.316Z,0.80
2019-02-12T17:39:08.806Z,0.90
2019-02-12T17:40:44.326Z,0.90
2019-02-12T17:42:19.822Z,0.90
2019-02-12T17:43:55.319Z,0.90
2019-02-12T17:45:30.897Z,0.90
2019-02-12T17:47:06.400Z,0.90
2019-02-12T17:48:41.889Z,0.90
2019-02-12T17:50:17.534Z,0.90
2019-02-12T17:51:53.125Z,0.90
2019-02-12T17:53:28.607Z,0.90
2019-02-12T17:55:04.958Z,0.90
2019-02-12T17:56:40.531Z,0.90
2019-02-12T17:58:16.031Z,0.90
2019-02-12T17:59:51.546Z,0.90
2019-02-12T18:01:28.631Z,0.90
2019-02-12T18:03:04.307Z,0.90
2019-02-12T18:04:39.825Z,0.90
2019-02-12T18:06:15.317Z,0.90
2019-02-12T18:07:50.815Z,0.90
2019-02-12T18:09:26.316Z,0.90
2019-02-12T18:11:01.884Z,0.90
2019-02-12T18:12:37.446Z,0.90
2019-02-12T18:14:12.979Z,0.90
2019-02-12T18:15:48.549Z,0.90
2019-02-12T18:17:24.050Z,0.90
2019-02-12T18:18:59.566Z,0.90
2019-02-12T18:20:35.130Z,0.90
2019-02-12T18:22:10.636Z,1.00
2019-02-12T18:23:46.212Z,0.90
2019-02-12T18:25:21.725Z,0.90
2019-02-12T18:26:57.450Z,1.00
2019-02-12T18:28:32.945Z,0.90
2019-02-12T18:30:19.429Z,1.00
2019-02-12T18:31:54.980Z,1.00
2019-02-12T18:33:30.479Z,1.00
2019-02-12T18:35:07.799Z,1.00
2019-02-12T18:36:43.285Z,1.00
2019-02-12T18:38:18.810Z,0.90
2019-02-12T18:39:54.301Z,1.00
2019-02-12T18:41:29.802Z,0.90
2019-02-12T18:43:05.302Z,1.00
2019-02-12T18:44:40.883Z,0.90
2019-02-12T18:46:17.238Z,0.90
2019-02-12T18:47:52.739Z,0.90
2019-02-12T18:49:28.990Z,1.00
2019-02-12T18:51:05.726Z,0.90
2019-02-12T18:52:42.008Z,0.90
2019-02-12T18:54:17.532Z,0.90
2019-02-12T18:55:53.030Z,0.90
2019-02-12T18:57:28.511Z,0.90
2019-02-12T18:59:04.079Z,0.90
2019-02-12T19:00:39.611Z,0.90
2019-02-12T19:02:15.176Z,0.90
2019-02-12T19:03:50.684Z,0.90
2019-02-12T19:05:26.867Z,0.90
2019-02-12T19:07:02.534Z,0.90
2019-02-12T19:08:38.050Z,0.90
2019-02-12T19:10:17.515Z,0.80
2019-02-12T19:11:54.572Z,0.80
2019-02-12T19:13:30.257Z,0.80
2019-02-12T19:15:11.560Z,0.80
2019-02-12T19:16:47.146Z,0.70
2019-02-12T19:18:25.522Z,0.70
2019-02-12T19:20:01.716Z,0.70
2019-02-12T19:21:37.227Z,0.70
2019-02-12T19:23:12.716Z,0.70
2019-02-12T19:24:48.216Z,0.60
2019-02-12T19:26:23.709Z,0.60
2019-02-12T19:27:59.286Z,0.50
2019-02-12T19:29:34.774Z,0.50
2019-02-12T19:31:10.277Z,0.50
2019-02-12T19:32:45.797Z,0.50
2019-02-12T19:34:21.295Z,0.40
2019-02-12T19:35:56.803Z,0.40
2019-02-12T19:37:32.320Z,0.40
2019-02-12T19:39:07.831Z,0.30
2019-02-12T19:40:43.328Z,0.30
2019-02-12T19:42:18.900Z,0.30
2019-02-12T19:43:54.478Z,0.30
2019-02-12T19:45:30.055Z,0.20
2019-02-12T19:47:05.533Z,0.20
2019-02-12T19:48:41.480Z,0.20
2019-02-12T19:50:19.967Z,0.20
2019-02-12T19:51:57.034Z,0.20
2019-02-12T19:53:32.533Z,0.10
2019-02-12T19:55:10.015Z,0.10
2019-02-12T19:56:45.513Z,0.10
2019-02-12T19:58:21.368Z,0.10
2019-02-12T19:59:56.868Z,0.10
2019-02-12T20:01:32.364Z,0.10
2019-02-12T20:03:07.865Z,0.00
2019-02-12T20:04:43.359Z,0.00
2019-02-12T20:06:18.909Z,0.00
2019-02-12T20:07:54.399Z,0.00
2019-02-12T20:09:31.023Z,0.00
2019-02-12T20:11:06.730Z,0.00
2019-02-12T20:12:42.226Z,0.00
2019-02-12T20:14:17.736Z,0.00
2019-02-12T20:15:53.227Z,0.00
2019-02-12T20:17:28.813Z,0.00
2019-02-12T20:19:04.313Z,-0.10
2019-02-12T20:20:42.699Z,-0.10
2019-02-12T20:22:19.838Z,-0.10
2019-02-12T20:23:56.336Z,-0.10
2019-02-12T20:25:33.464Z,-0.10
2019-02-12T20:27:09.530Z,-0.20
2019-02-12T20:28:45.057Z,-0.20
2019-02-12T20:30:20.633Z,-0.20
2019-02-12T20:31:56.136Z,-0.20
2019-02-12T20:33:31.636Z,-0.20
2019-02-12T20:35:11.825Z,-0.20
2019-02-12T20:36:47.315Z,-0.20
2019-02-12T20:38:22.899Z,-0.20
2019-02-12T20:39:58.836Z,-0.20
2019-02-12T20:41:34.334Z,-0.20
2019-02-12T20:43:09.846Z,-0.20
2019-02-12T20:44:48.104Z,-0.30
2019-02-12T20:46:22.608Z,-0.30
2019-02-12T20:47:58.506Z,-0.30
2019-02-12T20:49:34.006Z,-0.30
2019-02-12T20:51:09.591Z,-0.30
2019-02-12T20:52:45.126Z,-0.40
2019-02-12T20:54:20.635Z,-0.40
2019-02-12T20:55:56.146Z,-0.40
2019-02-12T20:57:31.724Z,-0.40
2019-02-12T20:59:07.218Z,-0.40
2019-02-12T21:00:42.832Z,-0.50
2019-02-12T21:02:18.339Z,-0.50
2019-02-12T21:03:53.851Z,-0.50
2019-02-12T21:05:29.633Z,-0.50
2019-02-12T21:07:05.148Z,-0.50
2019-02-12T21:08:40.661Z,-0.50
2019-02-12T21:10:21.902Z,-0.60
2019-02-12T21:11:57.659Z,-0.60
2019-02-12T21:13:33.187Z,-0.60
2019-02-12T21:15:16.342Z,-0.60
2019-02-12T21:16:51.936Z,-0.60
2019-02-12T21:18:27.458Z,-0.70
2019-02-12T21:20:03.040Z,-0.70
2019-02-12T21:21:38.542Z,-0.70
2019-02-12T21:23:14.129Z,-0.70
2019-02-12T21:24:49.806Z,-0.70
2019-02-12T21:26:25.375Z,-0.80
2019-02-12T21:28:00.908Z,-0.80
2019-02-12T21:29:36.439Z,-0.80
2019-02-12T21:31:12.132Z,-0.80
2019-02-12T21:32:47.854Z,-0.80
2019-02-12T21:34:23.365Z,-0.80
2019-02-12T21:36:00.294Z,-0.80
2019-02-12T21:37:35.809Z,-0.90
2019-02-12T21:39:18.595Z,-0.90
2019-02-12T21:40:54.120Z,-0.90
2019-02-12T21:42:29.672Z,-0.90
2019-02-12T21:44:05.412Z,-0.90
2019-02-12T21:45:41.091Z,-1.00
2019-02-12T21:47:17.365Z,-1.00
2019-02-12T21:48:52.961Z,-0.90
2019-02-12T21:50:28.531Z,-1.00
2019-02-12T21:52:05.933Z,-1.00
2019-02-12T21:53:41.704Z,-1.10
2019-02-12T21:55:24.854Z,-1.10